Disclaimer

Please do not use the information listed here in-flight or in-navigation, as they are not provided to us by the airports but are provided by volunteers, so they might be outdated.

Search


Regions


Airport information page

Radio informations:
Tower (TWR) - 118.25 MHz
Automatic Terminal Information Service (ATIS) - 127.25 MHz

Airport informations:
Latitude: 37° 40' 05.24" N
Longitude: 045° 04' 07.33" E
Elevation: 4343 feet - 1324 meters
Operating hours: 24 hour operations
Operating agency: Military-civil joint use airport
Timezone: UTC+3:30
Fuel: JP-4, Wide cut turbine fuel MIL Spec T-5624

Jet A1, without icing nhibitor.

Runway information:
03/21 - 10658 x 148 feet< - >3249 x 45 meters

Recent METARs:
OITR 201600Z 33010KT 7000 FEW035 BKN160 05/02 Q1020
OITR 201700Z 35006KT 6000 FEW035 SCT160 04/01 Q1019
OITR 201700Z 35006KT 6000 FEW035 SCT160 04/01 Q1019

Airport on the map: